Time;durP1;ratioP1;P1;durP2;ratioP2;P2;SDS_P1;SDS_P2;PMS_P1;PMS_P2;Temp;Humidity;BMP_temperature;BMP_pressure;BME280_temperature;BME280_humidity;BME280_pressure;Samples;Min_cycle;Max_cycle;Signal;HPM_P1;HPM_P2
2022/05/18 00:02:12;;;;;;;2.95;1.20;;;14.20;63.20;;;;;;4992342;28;20030;-67
2022/05/18 00:04:40;;;;;;;2.45;1.00;;;14.20;63.10;;;;;;4994084;28;20077;-67
2022/05/18 00:07:07;;;;;;;4.63;0.93;;;14.30;62.80;;;;;;4994174;28;20424;-68
2022/05/18 00:09:34;;;;;;;3.33;1.05;;;14.30;62.60;;;;;;4993672;28;20361;-67
2022/05/18 00:12:01;;;;;;;1.45;0.88;;;14.40;62.40;;;;;;4993684;28;20046;-67
2022/05/18 00:14:29;;;;;;;2.67;0.95;;;14.40;61.60;;;;;;4993565;28;20037;-66
2022/05/18 00:16:56;;;;;;;3.20;1.00;;;14.40;61.60;;;;;;4993809;28;20023;-67
2022/05/18 00:19:23;;;;;;;2.35;0.90;;;14.50;61.70;;;;;;4993671;28;20499;-67
2022/05/18 00:21:50;;;;;;;1.70;0.73;;;14.50;61.60;;;;;;4993874;28;20121;-67
2022/05/18 00:24:18;;;;;;;3.88;1.02;;;14.60;61.10;;;;;;4993460;28;20038;-67
2022/05/18 00:26:45;;;;;;;1.65;0.90;;;14.60;61.70;;;;;;4992907;28;20080;-67
2022/05/18 00:29:13;;;;;;;5.20;1.50;;;14.60;61.70;;;;;;4993700;28;20102;-67
2022/05/18 00:31:43;;;;;;;2.53;1.00;;;14.70;62.10;;;;;;4992161;28;20423;-67
2022/05/18 00:34:10;;;;;;;3.75;0.90;;;14.70;60.50;;;;;;4992235;28;20544;-67
2022/05/18 00:36:37;;;;;;;4.13;1.02;;;14.70;60.80;;;;;;4993540;28;20428;-68
2022/05/18 00:39:05;;;;;;;5.40;1.58;;;14.70;60.40;;;;;;4993639;28;20018;-67
2022/05/18 00:41:32;;;;;;;1.67;0.88;;;14.80;60.30;;;;;;4992219;28;20459;-67
2022/05/18 00:43:59;;;;;;;2.60;0.90;;;14.80;60.70;;;;;;4992953;28;20030;-67
2022/05/18 00:46:27;;;;;;;4.47;1.10;;;14.80;60.30;;;;;;4991682;28;20073;-67
2022/05/18 00:48:54;;;;;;;5.70;1.40;;;14.80;60.70;;;;;;4993519;28;20049;-67
2022/05/18 00:51:30;;;;;;;2.33;0.98;;;14.90;61.20;;;;;;4992420;28;20037;-67
2022/05/18 00:54:33;;;;;;;6.57;1.25;;;14.90;60.70;;;;;;4991695;28;20022;-67
2022/05/18 00:57:02;;;;;;;1.58;0.80;;;15.00;61.00;;;;;;4971219;28;20034;-67
2022/05/18 00:59:35;;;;;;;6.25;1.08;;;15.00;60.10;;;;;;4988449;28;20404;-68
2022/05/18 01:02:03;;;;;;;6.38;1.30;;;15.10;60.00;;;;;;4976538;28;20109;-67
2022/05/18 01:04:30;;;;;;;2.72;1.20;;;15.10;59.80;;;;;;4992605;28;20065;-67
2022/05/18 01:07:09;;;;;;;7.55;0.82;;;15.10;59.30;;;;;;4991771;28;20069;-67
2022/05/18 01:09:41;;;;;;;2.83;1.17;;;15.10;59.80;;;;;;4977028;28;20119;-67
2022/05/18 01:12:09;;;;;;;1.10;0.80;;;15.20;59.10;;;;;;4991961;28;20050;-67
2022/05/18 01:14:45;;;;;;;10.07;0.90;;;15.30;58.10;;;;;;4979141;28;20031;-67
2022/05/18 01:17:14;;;;;;;3.45;1.00;;;15.30;57.70;;;;;;4973918;28;20077;-67
2022/05/18 01:19:45;;;;;;;1.48;1.00;;;15.30;58.40;;;;;;4972061;28;20022;-68
2022/05/18 01:22:42;;;;;;;4.10;1.38;;;15.30;58.30;;;;;;4973204;28;20038;-68
2022/05/18 01:25:38;;;;;;;5.32;1.10;;;15.40;58.00;;;;;;4972142;28;20039;-67
2022/05/18 01:28:06;;;;;;;3.03;1.00;;;15.40;58.00;;;;;;4972074;28;20026;-67
2022/05/18 01:30:34;;;;;;;1.83;0.90;;;15.40;57.70;;;;;;4973200;28;20044;-67
2022/05/18 01:33:05;;;;;;;5.20;1.20;;;15.50;57.60;;;;;;4973141;28;20400;-67
2022/05/18 01:35:33;;;;;;;9.25;1.40;;;15.50;57.90;;;;;;4973018;28;20015;-67
2022/05/18 01:38:00;;;;;;;4.80;0.85;;;15.50;57.60;;;;;;4979590;28;20105;-67
2022/05/18 01:40:35;;;;;;;3.90;1.00;;;15.50;58.20;;;;;;4991518;28;20023;-67
2022/05/18 01:43:17;;;;;;;1.88;0.70;;;15.60;57.50;;;;;;4991407;28;20034;-67
2022/05/18 01:45:49;;;;;;;1.50;0.80;;;15.60;57.00;;;;;;4991216;28;20374;-67
2022/05/18 01:48:17;;;;;;;1.75;0.73;;;15.60;57.20;;;;;;4991514;28;20490;-67
2022/05/18 01:50:45;;;;;;;2.17;0.85;;;15.60;56.80;;;;;;4992371;28;20030;-67
2022/05/18 01:53:12;;;;;;;1.40;0.80;;;15.60;57.20;;;;;;4992464;28;20026;-67
2022/05/18 01:55:39;;;;;;;1.80;0.80;;;15.60;57.00;;;;;;4992346;28;20031;-68
2022/05/18 01:58:08;;;;;;;2.55;0.95;;;15.70;56.20;;;;;;4992146;28;20389;-68
2022/05/18 02:00:35;;;;;;;1.40;0.80;;;15.70;56.30;;;;;;4992179;28;20037;-67
2022/05/18 02:03:02;;;;;;;2.00;0.93;;;15.70;56.50;;;;;;4990116;28;20050;-67
2022/05/18 02:05:29;;;;;;;2.83;0.60;;;15.80;55.80;;;;;;4992213;28;20437;-68
2022/05/18 02:07:57;;;;;;;2.58;0.98;;;15.70;56.20;;;;;;4992185;28;20069;-67
2022/05/18 02:10:25;;;;;;;5.60;1.20;;;15.80;56.30;;;;;;4994010;28;20030;-68
2022/05/18 02:12:52;;;;;;;2.40;0.75;;;15.80;56.70;;;;;;4996165;28;20031;-67
2022/05/18 02:15:20;;;;;;;4.30;0.90;;;15.80;56.70;;;;;;4994971;28;20065;-68
2022/05/18 02:17:47;;;;;;;4.13;0.98;;;15.80;57.20;;;;;;4995004;28;20026;-68
2022/05/18 02:20:15;;;;;;;4.05;1.10;;;15.90;57.20;;;;;;4995884;28;20072;-67
2022/05/18 02:22:42;;;;;;;1.95;1.05;;;15.90;56.80;;;;;;4995869;28;20026;-67
2022/05/18 02:25:09;;;;;;;4.93;1.10;;;15.90;57.00;;;;;;4995115;28;20065;-67
2022/05/18 02:27:36;;;;;;;4.72;1.05;;;15.90;57.10;;;;;;4976411;28;20362;-67
2022/05/18 02:30:05;;;;;;;1.83;1.00;;;16.00;57.10;;;;;;4976561;28;20027;-68
2022/05/18 02:32:32;;;;;;;3.80;1.00;;;16.00;57.40;;;;;;4975146;28;20385;-67
2022/05/18 02:34:59;;;;;;;5.80;1.10;;;16.10;57.10;;;;;;4976121;28;20098;-67
2022/05/18 02:37:26;;;;;;;12.18;1.20;;;16.10;57.50;;;;;;4976173;28;20031;-67
2022/05/18 02:39:54;;;;;;;2.97;1.50;;;16.10;56.70;;;;;;4959465;28;20492;-67
2022/05/18 02:42:21;;;;;;;3.30;0.90;;;16.10;54.60;;;;;;4976239;28;20034;-67
2022/05/18 02:44:48;;;;;;;4.22;0.90;;;16.10;54.30;;;;;;4974753;28;20043;-68
2022/05/18 02:47:17;;;;;;;5.78;2.00;;;16.20;55.00;;;;;;4976014;28;20037;-68
2022/05/18 02:49:44;;;;;;;8.32;1.52;;;16.20;54.30;;;;;;4980524;28;20026;-67
2022/05/18 02:52:11;;;;;;;8.18;1.20;;;16.20;55.10;;;;;;4995125;28;20026;-68
2022/05/18 02:57:24;;;;;;;2.55;0.80;;;16.20;54.20;;;;;;4994228;28;20045;-68
2022/05/18 02:59:51;;;;;;;4.32;1.05;;;16.30;53.90;;;;;;4995719;28;20077;-67
2022/05/18 03:02:18;;;;;;;7.00;1.00;;;16.30;54.40;;;;;;4995464;28;20102;-67
2022/05/18 03:04:45;;;;;;;8.35;1.45;;;16.30;54.70;;;;;;4993396;28;20541;-67
2022/05/18 03:07:12;;;;;;;3.10;1.20;;;16.30;55.40;;;;;;4995571;28;20030;-67
2022/05/18 03:09:40;;;;;;;2.85;1.23;;;16.30;55.00;;;;;;4995072;28;20069;-68
2022/05/18 03:12:07;;;;;;;2.15;1.00;;;16.30;54.30;;;;;;4994828;28;20026;-68
2022/05/18 03:14:34;;;;;;;2.25;0.85;;;16.30;53.80;;;;;;4992978;28;20030;-67
2022/05/18 03:17:02;;;;;;;2.90;0.70;;;16.40;53.20;;;;;;4995031;28;20056;-67
2022/05/18 03:19:29;;;;;;;34.90;2.88;;;16.40;52.90;;;;;;4995250;28;20113;-67
2022/05/18 03:24:58;;;;;;;2.35;0.90;;;16.50;53.10;;;;;;4953765;29;20041;-68
2022/05/18 03:27:27;;;;;;;1.67;0.63;;;16.50;52.70;;;;;;4986757;28;20030;-68
2022/05/18 03:29:54;;;;;;;9.18;0.85;;;16.50;52.20;;;;;;4994503;28;20361;-67
2022/05/18 03:32:22;;;;;;;2.35;0.85;;;16.60;51.80;;;;;;4994349;28;20026;-67
2022/05/18 03:34:50;;;;;;;2.85;0.63;;;16.60;51.90;;;;;;4994824;28;20098;-68
2022/05/18 03:37:18;;;;;;;2.75;1.00;;;16.60;52.20;;;;;;4993364;28;20041;-67
2022/05/18 03:39:46;;;;;;;2.85;0.77;;;16.70;52.30;;;;;;4993546;28;20109;-68
2022/05/18 03:42:13;;;;;;;1.63;0.85;;;16.70;52.40;;;;;;4994437;28;20054;-67
2022/05/18 03:44:40;;;;;;;1.75;0.93;;;16.60;52.20;;;;;;4994271;28;20480;-67
2022/05/18 03:47:09;;;;;;;4.80;1.20;;;16.60;53.20;;;;;;4994403;28;20421;-68
2022/05/18 03:49:36;;;;;;;3.28;1.00;;;16.60;53.70;;;;;;4994448;28;20038;-68
2022/05/18 03:52:04;;;;;;;4.80;1.08;;;16.60;53.20;;;;;;4994345;28;20033;-67
2022/05/18 03:54:31;;;;;;;8.48;2.08;;;16.70;53.30;;;;;;4994275;28;20101;-67
2022/05/18 03:56:58;;;;;;;5.40;1.00;;;16.70;53.90;;;;;;4994212;28;20023;-68
2022/05/18 03:59:26;;;;;;;8.82;1.10;;;16.70;52.90;;;;;;4994520;28;20491;-67
2022/05/18 04:01:53;;;;;;;8.23;1.20;;;16.70;53.10;;;;;;4993807;28;20101;-67
2022/05/18 04:04:20;;;;;;;3.92;0.73;;;16.70;52.80;;;;;;4994219;28;20101;-67
2022/05/18 04:06:48;;;;;;;2.53;0.88;;;16.70;52.60;;;;;;4994041;28;20025;-67
2022/05/18 04:09:15;;;;;;;3.63;0.98;;;16.70;52.60;;;;;;4993809;28;20030;-67
2022/05/18 04:11:42;;;;;;;3.03;1.05;;;16.80;53.10;;;;;;4993491;28;20023;-68
2022/05/18 04:14:09;;;;;;;6.28;1.10;;;16.80;53.70;;;;;;4993979;28;20038;-67
2022/05/18 04:16:36;;;;;;;4.90;0.90;;;16.80;53.90;;;;;;4994092;28;20052;-67
2022/05/18 04:19:03;;;;;;;3.38;0.95;;;16.80;53.00;;;;;;4993791;28;20018;-68
2022/05/18 04:21:31;;;;;;;2.55;0.90;;;16.80;52.80;;;;;;4993709;28;20031;-68
2022/05/18 04:23:58;;;;;;;5.03;1.00;;;16.80;53.80;;;;;;4993599;28;20465;-68
2022/05/18 04:26:25;;;;;;;5.35;0.95;;;17.00;51.40;;;;;;4992659;28;20026;-67
2022/05/18 04:28:52;;;;;;;2.50;1.10;;;17.00;53.40;;;;;;4993899;28;20121;-68
2022/05/18 04:31:19;;;;;;;1.05;0.68;;;17.00;53.00;;;;;;4993844;28;20181;-68
2022/05/18 04:33:47;;;;;;;1.77;0.73;;;17.00;52.20;;;;;;4992655;28;20022;-67
2022/05/18 04:36:14;;;;;;;10.98;1.20;;;17.00;52.20;;;;;;4993588;28;20104;-67
2022/05/18 04:38:41;;;;;;;2.47;1.00;;;17.00;52.80;;;;;;4993554;28;20034;-67
2022/05/18 04:41:08;;;;;;;2.63;0.93;;;16.90;53.20;;;;;;4992401;28;20381;-67
2022/05/18 04:43:35;;;;;;;3.20;1.02;;;16.90;53.00;;;;;;4992958;28;20153;-67
2022/05/18 04:46:03;;;;;;;5.22;1.10;;;17.00;53.00;;;;;;4993270;28;20109;-67
2022/05/18 04:48:32;;;;;;;4.25;0.90;;;17.00;53.10;;;;;;4991997;28;20369;-67
2022/05/18 04:51:04;;;;;;;5.30;1.00;;;17.00;53.20;;;;;;4992341;28;20057;-68
2022/05/18 04:53:31;;;;;;;5.22;0.70;;;17.00;53.30;;;;;;4993028;28;20026;-67
2022/05/18 04:55:59;;;;;;;2.45;1.00;;;17.00;53.20;;;;;;4993215;28;20027;-67
2022/05/18 04:58:26;;;;;;;2.00;0.82;;;17.00;53.70;;;;;;4993444;28;20031;-68
2022/05/18 05:00:59;;;;;;;3.42;0.80;;;17.00;53.70;;;;;;4993123;28;20030;-68
2022/05/18 05:03:26;;;;;;;2.78;0.85;;;17.00;53.40;;;;;;4975509;28;20047;-67
2022/05/18 05:05:53;;;;;;;1.23;0.80;;;17.10;53.50;;;;;;4992776;28;20035;-67
2022/05/18 05:08:21;;;;;;;6.57;1.40;;;17.10;53.60;;;;;;4993096;28;20038;-67
2022/05/18 05:10:48;;;;;;;4.10;0.98;;;17.10;53.90;;;;;;4992580;28;20137;-68
2022/05/18 05:13:15;;;;;;;3.95;1.10;;;17.10;53.20;;;;;;4990662;28;20037;-67
2022/05/18 05:15:44;;;;;;;8.07;1.02;;;17.10;53.50;;;;;;4975141;28;20030;-67
2022/05/18 05:18:11;;;;;;;6.65;1.00;;;17.10;53.60;;;;;;4992518;28;20026;-67
2022/05/18 05:20:39;;;;;;;8.32;1.65;;;17.00;53.80;;;;;;4992853;28;20049;-67
2022/05/18 05:23:06;;;;;;;5.65;1.20;;;17.10;54.60;;;;;;4992603;28;20076;-67
2022/05/18 05:25:33;;;;;;;7.03;1.30;;;17.10;54.90;;;;;;4991042;28;20027;-67
2022/05/18 05:28:01;;;;;;;5.07;0.98;;;17.00;55.10;;;;;;4991177;28;20022;-68
2022/05/18 05:30:28;;;;;;;2.95;1.10;;;17.00;54.60;;;;;;4990756;28;20085;-67
2022/05/18 05:32:55;;;;;;;5.75;1.45;;;16.90;54.50;;;;;;4991242;28;20146;-67
2022/05/18 05:35:23;;;;;;;3.53;1.30;;;16.90;54.70;;;;;;4991808;28;20034;-67
2022/05/18 05:37:50;;;;;;;3.17;1.00;;;16.90;54.20;;;;;;4991378;28;20029;-67
2022/05/18 05:40:17;;;;;;;10.43;1.52;;;16.90;54.30;;;;;;4991892;28;20030;-67
2022/05/18 05:42:44;;;;;;;5.30;1.60;;;16.90;54.10;;;;;;4991948;28;20026;-67
2022/05/18 05:45:12;;;;;;;3.65;1.20;;;16.80;55.40;;;;;;4991609;28;20484;-67
2022/05/18 05:47:39;;;;;;;2.88;1.00;;;16.80;54.70;;;;;;4991728;28;20030;-67
2022/05/18 05:50:07;;;;;;;2.03;0.90;;;16.80;54.20;;;;;;4989172;28;20031;-66
2022/05/18 05:52:34;;;;;;;4.18;0.90;;;16.80;54.60;;;;;;4987886;28;20034;-67
2022/05/18 05:55:02;;;;;;;5.53;1.30;;;16.80;53.80;;;;;;4989020;28;20086;-65
2022/05/18 05:57:29;;;;;;;4.55;1.02;;;16.80;53.30;;;;;;4988455;28;20085;-66
2022/05/18 05:59:56;;;;;;;7.43;1.33;;;16.80;53.30;;;;;;4987770;28;20084;-67
2022/05/18 06:02:23;;;;;;;2.65;1.17;;;16.80;53.40;;;;;;4989200;28;20106;-66
2022/05/18 06:04:50;;;;;;;14.05;1.40;;;16.80;53.10;;;;;;4988705;28;20046;-67
2022/05/18 06:07:20;;;;;;;6.80;1.73;;;16.80;54.60;;;;;;4988621;28;20042;-66
2022/05/18 06:09:47;;;;;;;2.42;1.23;;;16.80;54.70;;;;;;4987466;28;20271;-70
2022/05/18 06:12:14;;;;;;;2.20;1.00;;;16.80;53.90;;;;;;4989223;28;20034;-70
2022/05/18 06:14:45;;;;;;;4.28;1.40;;;16.80;53.30;;;;;;4988643;28;20032;-70
2022/05/18 06:17:12;;;;;;;2.75;0.98;;;16.80;53.40;;;;;;4988936;28;20025;-70
2022/05/18 06:19:40;;;;;;;4.13;1.02;;;16.80;53.30;;;;;;4987860;28;20038;-69
2022/05/18 06:22:07;;;;;;;2.95;1.60;;;16.80;53.70;;;;;;4988898;28;20100;-67
2022/05/18 06:24:35;;;;;;;5.57;1.08;;;16.80;51.60;;;;;;4988203;28;20042;-66
2022/05/18 06:27:02;;;;;;;4.80;0.80;;;16.90;51.50;;;;;;4985812;28;20030;-65
2022/05/18 06:29:30;;;;;;;1.80;0.80;;;16.80;52.00;;;;;;4988398;28;20030;-65
2022/05/18 06:31:57;;;;;;;5.93;0.80;;;16.80;51.50;;;;;;4988382;28;20065;-65
2022/05/18 06:34:24;;;;;;;6.18;1.00;;;16.80;51.90;;;;;;4988464;28;20037;-65
2022/05/18 06:36:52;;;;;;;6.93;1.20;;;16.80;52.00;;;;;;4988641;28;20026;-65
2022/05/18 06:39:19;;;;;;;5.65;1.20;;;16.80;52.10;;;;;;4988309;28;20507;-65
2022/05/18 06:41:47;;;;;;;6.93;1.50;;;16.80;52.40;;;;;;4987164;28;20440;-66
2022/05/18 06:44:14;;;;;;;5.18;1.33;;;16.70;53.10;;;;;;4987863;28;20038;-65
2022/05/18 06:46:41;;;;;;;3.17;1.20;;;16.70;52.40;;;;;;4987160;28;20134;-65
2022/05/18 06:49:10;;;;;;;4.50;1.33;;;16.70;53.10;;;;;;4988537;28;20026;-65
2022/05/18 06:51:39;;;;;;;5.65;1.33;;;16.70;52.40;;;;;;4987067;28;20054;-65
2022/05/18 06:54:07;;;;;;;4.10;1.40;;;16.70;52.40;;;;;;4988372;28;20041;-65
2022/05/18 06:56:38;;;;;;;5.70;1.20;;;16.70;52.60;;;;;;4988509;28;20384;-65
2022/05/18 06:59:06;;;;;;;1.33;0.82;;;16.70;52.80;;;;;;4976747;28;20117;-66
2022/05/18 07:01:33;;;;;;;3.97;1.20;;;16.70;52.10;;;;;;4990121;28;20026;-66
2022/05/18 07:04:00;;;;;;;3.28;0.98;;;16.60;52.70;;;;;;4991513;28;20053;-66
2022/05/18 07:06:35;;;;;;;3.15;1.10;;;16.60;52.10;;;;;;4991675;28;20614;-66
2022/05/18 07:09:03;;;;;;;5.80;1.30;;;16.60;51.30;;;;;;4990453;28;20093;-66
2022/05/18 07:11:30;;;;;;;3.47;1.27;;;16.60;51.80;;;;;;4991809;28;20023;-65
2022/05/18 07:13:58;;;;;;;2.35;1.10;;;16.60;51.60;;;;;;4991221;28;20233;-66
2022/05/18 07:16:26;;;;;;;2.22;1.08;;;16.60;51.70;;;;;;4991434;28;20477;-66
2022/05/18 07:18:54;;;;;;;8.27;1.35;;;16.50;51.90;;;;;;4991615;28;20056;-66
2022/05/18 07:21:21;;;;;;;3.05;1.80;;;16.60;52.20;;;;;;4991678;28;20081;-65
2022/05/18 07:23:49;;;;;;;3.20;1.45;;;16.50;52.50;;;;;;4974067;28;20113;-69
2022/05/18 07:26:16;;;;;;;4.97;1.52;;;16.50;52.70;;;;;;4987136;28;20337;-66
2022/05/18 07:28:43;;;;;;;2.60;1.15;;;16.40;52.60;;;;;;4988284;28;20503;-66
2022/05/18 07:31:10;;;;;;;2.22;1.17;;;16.40;52.60;;;;;;4991103;28;20022;-67
2022/05/18 07:33:38;;;;;;;3.45;0.90;;;16.40;52.60;;;;;;4991247;28;20088;-67
2022/05/18 07:36:05;;;;;;;7.80;1.33;;;16.40;52.40;;;;;;4985750;28;20026;-66
2022/05/18 07:38:33;;;;;;;2.58;1.10;;;16.40;52.60;;;;;;4986416;28;20137;-66
2022/05/18 07:41:00;;;;;;;6.90;1.63;;;16.30;52.90;;;;;;4992110;28;20415;-66
2022/05/18 07:43:27;;;;;;;2.33;1.40;;;16.40;53.00;;;;;;4988834;28;20026;-66
2022/05/18 07:45:55;;;;;;;2.30;1.23;;;16.30;52.40;;;;;;4993374;28;20037;-66
2022/05/18 07:48:22;;;;;;;4.82;1.40;;;16.30;52.80;;;;;;4992037;28;20030;-66
2022/05/18 07:50:50;;;;;;;2.58;1.17;;;16.30;52.50;;;;;;4992691;28;20089;-67
2022/05/18 07:53:17;;;;;;;2.95;1.30;;;16.30;52.70;;;;;;4993393;28;20380;-66
2022/05/18 07:55:44;;;;;;;8.07;1.35;;;16.30;52.80;;;;;;4979271;28;20026;-67
2022/05/18 07:58:13;;;;;;;3.50;1.10;;;16.30;52.70;;;;;;4987331;28;20042;-66
2022/05/18 08:00:40;;;;;;;5.50;1.70;;;16.30;52.70;;;;;;4993749;28;20099;-67
2022/05/18 08:03:09;;;;;;;5.63;1.30;;;16.30;52.80;;;;;;4991272;28;20038;-66
2022/05/18 08:05:37;;;;;;;3.50;1.52;;;16.20;52.80;;;;;;4993653;28;20053;-66
2022/05/18 08:08:06;;;;;;;3.10;1.35;;;16.20;52.90;;;;;;4991063;28;20026;-66
2022/05/18 08:16:05;;;;;;;3.30;1.48;;;16.20;53.30;;;;;;4993211;28;20049;-66
2022/05/18 08:18:33;;;;;;;5.00;1.67;;;16.20;53.90;;;;;;4992834;28;20026;-66
2022/05/18 08:21:00;;;;;;;3.22;1.88;;;16.20;56.30;;;;;;4993597;28;20041;-66
2022/05/18 08:23:27;;;;;;;2.55;1.50;;;16.10;56.80;;;;;;4993175;28;20252;-66
2022/05/18 08:25:58;;;;;;;5.68;2.45;;;16.10;56.40;;;;;;4989561;28;20495;-66
2022/05/18 08:28:26;;;;;;;4.47;2.08;;;16.10;58.10;;;;;;4991533;28;20495;-66
2022/05/18 08:30:55;;;;;;;5.07;1.88;;;16.00;58.90;;;;;;4990430;28;20026;-66
2022/05/18 08:33:22;;;;;;;2.72;1.65;;;16.00;59.20;;;;;;4988736;28;20487;-66
2022/05/18 08:35:51;;;;;;;2.38;1.42;;;16.00;59.00;;;;;;4987576;28;20061;-65
2022/05/18 08:38:19;;;;;;;2.35;1.40;;;16.00;59.20;;;;;;4988333;28;20026;-65
2022/05/18 08:40:49;;;;;;;3.53;1.67;;;16.00;58.70;;;;;;4985962;28;20468;-64
2022/05/18 08:43:35;;;;;;;8.77;1.60;;;16.00;58.70;;;;;;4980991;28;20519;-65
2022/05/18 08:46:23;;;;;;;5.22;1.65;;;16.00;59.20;;;;;;4988457;28;20050;-65
2022/05/18 08:48:56;;;;;;;2.90;1.35;;;16.00;58.60;;;;;;4985933;28;20066;-65
2022/05/18 08:51:45;;;;;;;3.47;1.40;;;16.00;58.00;;;;;;4985526;28;20022;-66
2022/05/18 08:54:30;;;;;;;5.30;1.63;;;16.00;58.40;;;;;;4984070;28;20491;-67
2022/05/18 08:56:58;;;;;;;6.03;1.50;;;16.00;59.30;;;;;;4987916;28;20029;-65
2022/05/18 08:59:33;;;;;;;4.95;1.40;;;16.00;58.80;;;;;;4989081;28;20034;-64
2022/05/18 09:02:03;;;;;;;2.15;1.40;;;16.00;59.00;;;;;;4987237;28;20034;-65
2022/05/18 09:04:43;;;;;;;4.85;1.65;;;15.90;58.60;;;;;;4987472;28;20065;-64
2022/05/18 09:07:12;;;;;;;2.97;1.50;;;16.00;58.80;;;;;;4985956;28;20039;-65
2022/05/18 09:10:14;;;;;;;3.13;1.50;;;15.90;58.90;;;;;;4985639;28;20034;-65
2022/05/18 09:12:46;;;;;;;5.47;1.52;;;15.90;59.50;;;;;;4988404;28;20034;-65
2022/05/18 09:15:17;;;;;;;2.30;1.70;;;15.90;61.50;;;;;;4987908;28;20408;-65
2022/05/18 09:18:16;;;;;;;2.85;1.63;;;15.80;59.50;;;;;;4987905;28;20065;-65
2022/05/18 09:20:48;;;;;;;4.70;2.20;;;15.80;58.00;;;;;;4985400;28;20038;-65
2022/05/18 09:23:24;;;;;;;3.30;1.73;;;15.80;58.00;;;;;;4984582;28;20025;-64
2022/05/18 09:26:07;;;;;;;6.15;2.00;;;15.80;57.80;;;;;;4987775;28;20035;-67
2022/05/18 09:28:37;;;;;;;3.42;1.60;;;15.80;57.30;;;;;;4987285;28;20085;-67
2022/05/18 09:31:23;;;;;;;4.75;1.70;;;15.80;57.30;;;;;;4988459;28;20031;-65
2022/05/18 09:34:02;;;;;;;3.47;1.60;;;15.80;56.90;;;;;;4988680;28;20083;-67
2022/05/18 09:36:41;;;;;;;4.72;1.40;;;15.80;56.90;;;;;;4985359;28;20023;-65
2022/05/18 09:39:19;;;;;;;4.55;1.55;;;15.80;56.60;;;;;;4987922;28;20121;-65
2022/05/18 09:41:53;;;;;;;3.28;1.60;;;15.80;56.90;;;;;;4986383;28;20030;-65
2022/05/18 09:44:32;;;;;;;4.95;1.33;;;15.80;56.10;;;;;;4980428;28;20129;-64
2022/05/18 09:47:00;;;;;;;7.50;1.00;;;15.80;55.60;;;;;;4986370;28;20477;-64
2022/05/18 09:49:27;;;;;;;3.65;0.90;;;15.80;54.60;;;;;;4965355;28;20089;-69
2022/05/18 09:51:54;;;;;;;1.42;0.90;;;15.80;54.70;;;;;;4987452;28;20118;-66
2022/05/18 09:54:21;;;;;;;5.78;1.00;;;15.80;54.00;;;;;;4986537;28;20025;-65
2022/05/18 09:56:56;;;;;;;1.52;0.90;;;15.80;54.60;;;;;;4970813;28;20030;-68
2022/05/18 09:59:28;;;;;;;4.45;1.20;;;15.80;53.90;;;;;;4970750;28;20034;-65
2022/05/18 10:07:34;;;;;;;3.17;1.15;;;15.80;53.50;;;;;;4986383;28;20594;-66
2022/05/18 10:10:12;;;;;;;5.65;1.13;;;15.80;54.20;;;;;;4970731;28;20485;-66
2022/05/18 10:12:49;;;;;;;3.83;1.20;;;15.80;53.70;;;;;;4982101;28;20027;-66
2022/05/18 10:15:25;;;;;;;3.38;1.10;;;15.80;53.30;;;;;;4986055;28;20034;-68
2022/05/18 10:18:20;;;;;;;4.25;1.00;;;15.80;53.10;;;;;;4984027;28;20034;-65
2022/05/18 10:21:20;;;;;;;2.28;0.93;;;15.80;53.80;;;;;;4958597;28;20121;-68
2022/05/18 10:23:55;;;;;;;3.78;1.00;;;15.70;54.40;;;;;;4973023;28;20113;-67
2022/05/18 10:26:35;;;;;;;2.05;0.98;;;15.70;54.70;;;;;;4979965;28;20508;-67
2022/05/18 10:29:14;;;;;;;3.30;0.93;;;15.70;55.00;;;;;;4983983;28;20453;-67
2022/05/18 10:31:46;;;;;;;1.58;0.90;;;15.70;54.80;;;;;;4989795;28;20041;-67
2022/05/18 10:34:25;;;;;;;1.45;1.00;;;15.70;54.80;;;;;;4988246;28;20100;-65
2022/05/18 10:36:54;;;;;;;3.30;1.17;;;15.60;55.10;;;;;;4988184;28;20037;-67
2022/05/18 10:39:38;;;;;;;3.20;0.70;;;15.60;55.30;;;;;;4988389;28;20045;-65
2022/05/18 10:42:28;;;;;;;4.97;0.93;;;15.60;56.10;;;;;;4989338;28;20018;-66
2022/05/18 10:44:57;;;;;;;2.28;0.70;;;15.50;54.40;;;;;;4989759;28;20038;-64
2022/05/18 10:47:30;;;;;;;1.98;0.80;;;15.60;54.70;;;;;;4989202;28;20453;-67
2022/05/18 10:50:26;;;;;;;2.35;0.75;;;15.60;54.50;;;;;;4991486;28;20093;-64
2022/05/18 10:53:02;;;;;;;3.50;0.80;;;15.50;55.50;;;;;;4983070;28;20034;-67
2022/05/18 10:55:30;;;;;;;1.95;0.82;;;15.50;55.60;;;;;;4987639;28;20039;-64
2022/05/18 10:58:04;;;;;;;3.28;0.77;;;15.50;55.70;;;;;;4989875;28;20038;-66
2022/05/18 11:01:00;;;;;;;2.13;0.85;;;15.50;54.40;;;;;;4988067;28;20026;-66
2022/05/18 11:03:54;;;;;;;2.80;0.90;;;15.50;55.60;;;;;;4988240;28;20043;-67
2022/05/18 11:06:28;;;;;;;5.07;1.20;;;15.50;55.00;;;;;;4980500;28;20038;-65
2022/05/18 11:09:01;;;;;;;1.80;1.00;;;15.50;56.30;;;;;;4969444;28;20111;-66
2022/05/18 11:11:39;;;;;;;7.18;2.40;;;15.50;56.00;;;;;;4980459;28;20057;-65
2022/05/18 11:14:09;;;;;;;1.20;0.80;;;15.40;57.40;;;;;;4954892;28;20193;-65
2022/05/18 11:16:41;;;;;;;0.90;0.65;;;15.40;56.30;;;;;;4988425;28;20808;-63
2022/05/18 11:19:19;;;;;;;2.20;0.93;;;15.40;56.10;;;;;;4973543;28;20050;-64
2022/05/18 11:22:02;;;;;;;2.28;0.73;;;15.30;57.20;;;;;;4982810;28;20049;-64
2022/05/18 11:24:49;;;;;;;3.20;0.90;;;15.30;56.80;;;;;;4986106;28;20070;-66
2022/05/18 11:27:16;;;;;;;1.90;0.80;;;15.30;56.50;;;;;;4948037;28;20038;-63
2022/05/18 11:30:06;;;;;;;1.38;1.00;;;15.30;57.50;;;;;;4985267;28;20114;-64
2022/05/18 11:32:48;;;;;;;1.83;0.85;;;15.30;57.30;;;;;;4989301;28;20022;-62
2022/05/18 11:35:21;;;;;;;2.50;1.20;;;15.30;57.30;;;;;;4986254;28;20122;-64
2022/05/18 11:37:59;;;;;;;0.60;0.60;;;15.30;57.80;;;;;;4989776;28;20037;-65
2022/05/18 11:40:53;;;;;;;3.63;1.20;;;15.20;56.30;;;;;;4989438;28;20114;-63
2022/05/18 11:43:35;;;;;;;3.42;0.95;;;15.20;57.10;;;;;;4978212;28;20022;-64
2022/05/18 11:46:27;;;;;;;2.75;1.10;;;15.20;56.80;;;;;;4988493;28;20377;-64
2022/05/18 11:49:20;;;;;;;3.28;0.88;;;15.20;57.80;;;;;;4989547;28;20026;-63
2022/05/18 11:51:56;;;;;;;2.88;0.77;;;15.20;57.30;;;;;;4939977;28;20074;-63
2022/05/18 11:55:00;;;;;;;1.55;0.80;;;15.20;56.50;;;;;;4976097;28;20018;-63
2022/05/18 11:57:33;;;;;;;1.85;0.82;;;15.10;57.60;;;;;;4988461;28;20034;-64
2022/05/18 12:00:46;;;;;;;3.75;0.90;;;15.10;57.70;;;;;;4990760;28;20031;-64
2022/05/18 12:03:48;;;;;;;2.83;1.00;;;15.10;57.10;;;;;;4987402;28;20050;-65
2022/05/18 12:06:55;;;;;;;3.47;1.00;;;15.00;57.60;;;;;;4978264;28;20045;-63
2022/05/18 12:09:50;;;;;;;1.23;0.70;;;15.00;58.10;;;;;;4988382;28;20176;-63
2022/05/18 12:12:20;;;;;;;2.10;0.77;;;15.00;57.80;;;;;;4990684;28;20040;-63
2022/05/18 12:14:51;;;;;;;1.90;0.90;;;15.00;58.60;;;;;;4987427;28;20084;-63
2022/05/18 12:17:23;;;;;;;1.15;0.90;;;14.90;57.80;;;;;;4989595;28;20025;-63
2022/05/18 12:20:13;;;;;;;2.38;0.77;;;14.90;57.00;;;;;;4989987;28;20029;-64
2022/05/18 12:22:59;;;;;;;2.67;0.90;;;14.90;58.20;;;;;;4986992;28;20656;-64
2022/05/18 12:25:27;;;;;;;1.10;0.70;;;14.80;58.00;;;;;;4983928;28;20042;-64
2022/05/18 12:27:57;;;;;;;3.13;1.30;;;14.80;58.20;;;;;;4990230;28;20121;-65
2022/05/18 12:30:25;;;;;;;0.67;0.57;;;14.80;58.20;;;;;;4972357;28;20093;-67
2022/05/18 12:32:53;;;;;;;2.97;0.73;;;14.80;58.40;;;;;;4989268;28;20038;-65
2022/05/18 12:35:25;;;;;;;1.25;0.80;;;14.70;59.00;;;;;;4986422;28;20557;-65
2022/05/18 12:38:09;;;;;;;1.33;0.80;;;14.70;58.40;;;;;;4989647;28;20139;-68
2022/05/18 12:40:47;;;;;;;1.08;0.73;;;14.70;58.00;;;;;;4988923;28;20027;-66
2022/05/18 12:43:27;;;;;;;1.55;0.95;;;14.70;57.00;;;;;;4969021;28;20457;-66
2022/05/18 12:46:18;;;;;;;1.85;0.77;;;14.70;57.40;;;;;;4982854;28;20550;-63
2022/05/18 12:48:58;;;;;;;1.42;1.02;;;14.70;57.10;;;;;;4974899;28;20109;-64
2022/05/18 12:51:31;;;;;;;1.92;0.82;;;14.70;56.80;;;;;;4987952;28;20097;-63
2022/05/18 12:54:11;;;;;;;1.83;0.82;;;14.60;57.10;;;;;;4985002;28;20679;-64
2022/05/18 12:56:38;;;;;;;1.17;0.90;;;14.60;57.30;;;;;;4990279;28;20109;-65
2022/05/18 12:59:12;;;;;;;1.58;0.82;;;14.60;57.40;;;;;;4984638;28;20037;-65
2022/05/18 13:01:43;;;;;;;2.35;0.85;;;14.60;56.80;;;;;;4985690;28;20085;-66
2022/05/18 13:04:10;;;;;;;2.50;1.00;;;14.60;56.80;;;;;;4986817;28;20448;-68
2022/05/18 13:06:45;;;;;;;1.58;0.80;;;14.60;57.00;;;;;;4988037;28;20098;-66
2022/05/18 13:09:30;;;;;;;1.83;0.77;;;14.50;57.40;;;;;;4991504;28;20033;-65
2022/05/18 13:12:19;;;;;;;1.63;1.00;;;14.50;57.30;;;;;;4985242;28;20045;-64
2022/05/18 13:15:10;;;;;;;1.58;0.90;;;14.50;57.00;;;;;;4992825;28;20511;-65
2022/05/18 13:18:02;;;;;;;2.15;0.85;;;14.50;57.90;;;;;;4988817;28;20469;-65
2022/05/18 13:20:56;;;;;;;1.95;0.90;;;14.50;57.60;;;;;;4981658;28;20030;-66
2022/05/18 13:23:27;;;;;;;1.67;0.80;;;14.40;57.10;;;;;;4985154;28;20114;-66
2022/05/18 13:26:00;;;;;;;4.25;0.90;;;14.40;57.80;;;;;;4989465;28;20037;-66
2022/05/18 13:28:30;;;;;;;3.78;0.90;;;14.30;57.80;;;;;;4988251;28;20030;-66